sensor_id;sensor_type;location;lat;lon;timestamp;P1;durP1;ratioP1;P2;durP2;ratioP2
72275;SDS011;61204;49.980;8.358;2022-12-11T00:00:45;47.55;;;20.02;;
72275;SDS011;61204;49.980;8.358;2022-12-11T00:03:11;32.15;;;19.67;;
72275;SDS011;61204;49.980;8.358;2022-12-11T00:05:40;33.50;;;19.13;;
72275;SDS011;61204;49.980;8.358;2022-12-11T00:08:06;33.60;;;19.85;;
72275;SDS011;61204;49.980;8.358;2022-12-11T00:10:32;32.38;;;17.10;;
72275;SDS011;61204;49.980;8.358;2022-12-11T00:12:58;34.03;;;20.13;;
72275;SDS011;61204;49.980;8.358;2022-12-11T00:15:23;30.52;;;18.10;;
72275;SDS011;61204;49.980;8.358;2022-12-11T00:17:49;32.25;;;20.23;;
72275;SDS011;61204;49.980;8.358;2022-12-11T00:20:15;35.38;;;20.08;;
72275;SDS011;61204;49.980;8.358;2022-12-11T00:22:40;35.67;;;19.88;;
72275;SDS011;61204;49.980;8.358;2022-12-11T00:25:06;38.60;;;21.35;;
72275;SDS011;61204;49.980;8.358;2022-12-11T00:27:33;34.30;;;20.00;;
72275;SDS011;61204;49.980;8.358;2022-12-11T00:29:58;34.97;;;20.35;;
72275;SDS011;61204;49.980;8.358;2022-12-11T00:32:24;31.67;;;19.40;;
72275;SDS011;61204;49.980;8.358;2022-12-11T00:34:50;37.97;;;20.85;;
72275;SDS011;61204;49.980;8.358;2022-12-11T00:37:16;36.40;;;21.15;;
72275;SDS011;61204;49.980;8.358;2022-12-11T00:39:41;34.80;;;21.52;;
72275;SDS011;61204;49.980;8.358;2022-12-11T00:42:07;40.83;;;21.60;;
72275;SDS011;61204;49.980;8.358;2022-12-11T00:44:33;35.53;;;21.90;;
72275;SDS011;61204;49.980;8.358;2022-12-11T00:47:00;38.63;;;22.98;;
72275;SDS011;61204;49.980;8.358;2022-12-11T00:49:28;40.47;;;23.98;;
72275;SDS011;61204;49.980;8.358;2022-12-11T00:51:53;37.33;;;21.75;;
72275;SDS011;61204;49.980;8.358;2022-12-11T00:54:19;41.08;;;23.23;;
72275;SDS011;61204;49.980;8.358;2022-12-11T00:56:45;35.60;;;22.08;;
72275;SDS011;61204;49.980;8.358;2022-12-11T00:59:11;40.40;;;21.77;;
72275;SDS011;61204;49.980;8.358;2022-12-11T01:01:37;38.10;;;21.70;;
72275;SDS011;61204;49.980;8.358;2022-12-11T01:04:03;38.28;;;21.63;;
72275;SDS011;61204;49.980;8.358;2022-12-11T01:06:29;35.83;;;21.23;;
72275;SDS011;61204;49.980;8.358;2022-12-11T01:08:55;38.50;;;23.08;;
72275;SDS011;61204;49.980;8.358;2022-12-11T01:11:40;34.33;;;20.85;;
72275;SDS011;61204;49.980;8.358;2022-12-11T01:14:08;38.63;;;23.10;;
72275;SDS011;61204;49.980;8.358;2022-12-11T01:16:36;33.92;;;21.40;;
72275;SDS011;61204;49.980;8.358;2022-12-11T01:19:02;39.38;;;21.95;;
72275;SDS011;61204;49.980;8.358;2022-12-11T01:21:28;37.20;;;21.27;;
72275;SDS011;61204;49.980;8.358;2022-12-11T01:23:53;38.70;;;21.88;;
72275;SDS011;61204;49.980;8.358;2022-12-11T01:26:19;36.20;;;22.92;;
72275;SDS011;61204;49.980;8.358;2022-12-11T01:28:47;36.72;;;22.42;;
72275;SDS011;61204;49.980;8.358;2022-12-11T01:31:16;38.72;;;22.30;;
72275;SDS011;61204;49.980;8.358;2022-12-11T01:33:44;40.80;;;22.55;;
72275;SDS011;61204;49.980;8.358;2022-12-11T01:36:11;38.92;;;22.33;;
72275;SDS011;61204;49.980;8.358;2022-12-11T01:38:43;43.00;;;23.27;;
72275;SDS011;61204;49.980;8.358;2022-12-11T01:41:11;36.17;;;22.60;;
72275;SDS011;61204;49.980;8.358;2022-12-11T01:46:51;38.78;;;23.42;;
72275;SDS011;61204;49.980;8.358;2022-12-11T01:49:18;38.15;;;22.63;;
72275;SDS011;61204;49.980;8.358;2022-12-11T01:54:45;42.38;;;23.08;;
72275;SDS011;61204;49.980;8.358;2022-12-11T01:57:15;43.75;;;24.10;;
72275;SDS011;61204;49.980;8.358;2022-12-11T01:59:42;41.00;;;24.10;;
72275;SDS011;61204;49.980;8.358;2022-12-11T02:02:21;43.30;;;24.92;;
72275;SDS011;61204;49.980;8.358;2022-12-11T02:04:54;40.58;;;24.27;;
72275;SDS011;61204;49.980;8.358;2022-12-11T02:07:20;49.83;;;27.13;;
72275;SDS011;61204;49.980;8.358;2022-12-11T02:09:46;46.60;;;26.40;;
72275;SDS011;61204;49.980;8.358;2022-12-11T02:12:47;50.10;;;27.13;;
72275;SDS011;61204;49.980;8.358;2022-12-11T02:18:24;43.03;;;25.13;;
72275;SDS011;61204;49.980;8.358;2022-12-11T02:21:15;47.47;;;26.48;;
72275;SDS011;61204;49.980;8.358;2022-12-11T02:32:45;42.67;;;23.70;;
72275;SDS011;61204;49.980;8.358;2022-12-11T02:35:24;40.83;;;22.85;;
72275;SDS011;61204;49.980;8.358;2022-12-11T02:38:04;48.30;;;25.67;;
72275;SDS011;61204;49.980;8.358;2022-12-11T02:40:41;43.35;;;25.23;;
72275;SDS011;61204;49.980;8.358;2022-12-11T02:43:13;53.35;;;27.17;;
72275;SDS011;61204;49.980;8.358;2022-12-11T02:45:43;51.53;;;24.55;;
72275;SDS011;61204;49.980;8.358;2022-12-11T02:48:12;45.50;;;24.67;;
72275;SDS011;61204;49.980;8.358;2022-12-11T02:50:43;36.65;;;23.17;;
72275;SDS011;61204;49.980;8.358;2022-12-11T02:53:16;47.17;;;25.92;;
72275;SDS011;61204;49.980;8.358;2022-12-11T02:55:49;46.72;;;27.13;;
72275;SDS011;61204;49.980;8.358;2022-12-11T02:58:31;46.55;;;26.58;;
72275;SDS011;61204;49.980;8.358;2022-12-11T03:01:01;50.53;;;26.50;;
72275;SDS011;61204;49.980;8.358;2022-12-11T03:03:27;48.88;;;26.77;;
72275;SDS011;61204;49.980;8.358;2022-12-11T03:05:54;49.15;;;26.58;;
72275;SDS011;61204;49.980;8.358;2022-12-11T03:08:20;49.65;;;27.40;;
72275;SDS011;61204;49.980;8.358;2022-12-11T03:10:46;51.85;;;28.02;;
72275;SDS011;61204;49.980;8.358;2022-12-11T03:13:12;48.15;;;27.65;;
72275;SDS011;61204;49.980;8.358;2022-12-11T03:18:44;58.20;;;29.50;;
72275;SDS011;61204;49.980;8.358;2022-12-11T03:21:33;50.25;;;28.23;;
72275;SDS011;61204;49.980;8.358;2022-12-11T03:26:55;54.15;;;28.30;;
72275;SDS011;61204;49.980;8.358;2022-12-11T03:29:35;46.88;;;25.85;;
72275;SDS011;61204;49.980;8.358;2022-12-11T03:32:15;47.75;;;27.98;;
72275;SDS011;61204;49.980;8.358;2022-12-11T03:35:04;49.28;;;27.05;;
72275;SDS011;61204;49.980;8.358;2022-12-11T03:37:45;46.55;;;26.48;;
72275;SDS011;61204;49.980;8.358;2022-12-11T03:40:17;49.50;;;28.35;;
72275;SDS011;61204;49.980;8.358;2022-12-11T03:42:49;52.17;;;28.48;;
72275;SDS011;61204;49.980;8.358;2022-12-11T03:45:20;47.78;;;25.73;;
72275;SDS011;61204;49.980;8.358;2022-12-11T03:47:50;54.60;;;28.88;;
72275;SDS011;61204;49.980;8.358;2022-12-11T03:50:20;53.08;;;30.08;;
72275;SDS011;61204;49.980;8.358;2022-12-11T03:52:52;54.53;;;30.50;;
72275;SDS011;61204;49.980;8.358;2022-12-11T03:55:21;48.97;;;27.45;;
72275;SDS011;61204;49.980;8.358;2022-12-11T03:57:47;51.58;;;28.40;;
72275;SDS011;61204;49.980;8.358;2022-12-11T04:00:15;50.45;;;29.58;;
72275;SDS011;61204;49.980;8.358;2022-12-11T04:02:45;59.17;;;31.25;;
72275;SDS011;61204;49.980;8.358;2022-12-11T04:05:31;52.80;;;30.30;;
72275;SDS011;61204;49.980;8.358;2022-12-11T04:07:57;56.65;;;31.02;;
72275;SDS011;61204;49.980;8.358;2022-12-11T04:10:23;60.22;;;31.77;;
72275;SDS011;61204;49.980;8.358;2022-12-11T04:12:48;55.75;;;30.38;;
72275;SDS011;61204;49.980;8.358;2022-12-11T04:15:14;55.35;;;30.73;;
72275;SDS011;61204;49.980;8.358;2022-12-11T04:17:40;59.55;;;32.45;;
72275;SDS011;61204;49.980;8.358;2022-12-11T04:20:23;52.33;;;29.98;;
72275;SDS011;61204;49.980;8.358;2022-12-11T04:23:15;51.00;;;28.73;;
72275;SDS011;61204;49.980;8.358;2022-12-11T04:26:05;52.13;;;28.40;;
72275;SDS011;61204;49.980;8.358;2022-12-11T04:28:44;50.60;;;27.50;;
72275;SDS011;61204;49.980;8.358;2022-12-11T04:31:13;51.35;;;27.67;;
72275;SDS011;61204;49.980;8.358;2022-12-11T04:33:43;50.13;;;27.10;;
72275;SDS011;61204;49.980;8.358;2022-12-11T04:36:09;46.03;;;25.60;;
72275;SDS011;61204;49.980;8.358;2022-12-11T04:38:37;55.35;;;29.23;;
72275;SDS011;61204;49.980;8.358;2022-12-11T04:41:07;46.90;;;25.70;;
72275;SDS011;61204;49.980;8.358;2022-12-11T04:43:39;51.50;;;28.15;;
72275;SDS011;61204;49.980;8.358;2022-12-11T04:46:10;54.72;;;27.98;;
72275;SDS011;61204;49.980;8.358;2022-12-11T04:48:41;50.67;;;28.63;;
72275;SDS011;61204;49.980;8.358;2022-12-11T04:51:07;51.55;;;27.85;;
72275;SDS011;61204;49.980;8.358;2022-12-11T04:53:34;51.65;;;27.75;;
72275;SDS011;61204;49.980;8.358;2022-12-11T04:56:03;43.92;;;25.70;;
72275;SDS011;61204;49.980;8.358;2022-12-11T04:58:32;48.72;;;26.05;;
72275;SDS011;61204;49.980;8.358;2022-12-11T05:00:59;45.95;;;27.95;;
72275;SDS011;61204;49.980;8.358;2022-12-11T05:03:34;51.10;;;25.05;;
72275;SDS011;61204;49.980;8.358;2022-12-11T05:06:00;47.05;;;26.58;;
72275;SDS011;61204;49.980;8.358;2022-12-11T05:08:25;48.88;;;25.05;;
72275;SDS011;61204;49.980;8.358;2022-12-11T05:10:57;46.75;;;26.70;;
72275;SDS011;61204;49.980;8.358;2022-12-11T05:13:27;51.60;;;27.23;;
72275;SDS011;61204;49.980;8.358;2022-12-11T05:15:54;51.05;;;27.95;;
72275;SDS011;61204;49.980;8.358;2022-12-11T05:18:20;42.75;;;25.08;;
72275;SDS011;61204;49.980;8.358;2022-12-11T05:20:54;53.63;;;28.45;;
72275;SDS011;61204;49.980;8.358;2022-12-11T05:25:50;51.63;;;25.83;;
72275;SDS011;61204;49.980;8.358;2022-12-11T05:28:22;46.30;;;26.85;;
72275;SDS011;61204;49.980;8.358;2022-12-11T05:30:56;49.67;;;26.75;;
72275;SDS011;61204;49.980;8.358;2022-12-11T05:33:29;50.83;;;26.70;;
72275;SDS011;61204;49.980;8.358;2022-12-11T05:35:55;48.15;;;26.85;;
72275;SDS011;61204;49.980;8.358;2022-12-11T05:38:22;53.90;;;28.15;;
72275;SDS011;61204;49.980;8.358;2022-12-11T05:40:58;45.65;;;26.13;;
72275;SDS011;61204;49.980;8.358;2022-12-11T05:43:28;46.75;;;26.77;;
72275;SDS011;61204;49.980;8.358;2022-12-11T05:46:08;51.13;;;27.75;;
72275;SDS011;61204;49.980;8.358;2022-12-11T05:51:13;50.03;;;26.25;;
72275;SDS011;61204;49.980;8.358;2022-12-11T05:53:41;51.90;;;27.00;;
72275;SDS011;61204;49.980;8.358;2022-12-11T05:56:11;52.85;;;27.58;;
72275;SDS011;61204;49.980;8.358;2022-12-11T05:58:42;50.92;;;28.30;;
72275;SDS011;61204;49.980;8.358;2022-12-11T06:01:15;50.28;;;29.35;;
72275;SDS011;61204;49.980;8.358;2022-12-11T06:03:45;47.88;;;26.00;;
72275;SDS011;61204;49.980;8.358;2022-12-11T06:06:11;53.00;;;29.05;;
72275;SDS011;61204;49.980;8.358;2022-12-11T06:08:38;56.03;;;30.23;;
72275;SDS011;61204;49.980;8.358;2022-12-11T06:11:05;50.65;;;28.13;;
72275;SDS011;61204;49.980;8.358;2022-12-11T06:13:31;50.22;;;27.65;;
72275;SDS011;61204;49.980;8.358;2022-12-11T06:16:00;46.78;;;27.08;;
72275;SDS011;61204;49.980;8.358;2022-12-11T06:18:30;47.10;;;27.00;;
72275;SDS011;61204;49.980;8.358;2022-12-11T06:21:01;48.13;;;27.17;;
72275;SDS011;61204;49.980;8.358;2022-12-11T06:23:26;48.13;;;26.73;;
72275;SDS011;61204;49.980;8.358;2022-12-11T06:25:52;44.90;;;26.65;;
72275;SDS011;61204;49.980;8.358;2022-12-11T06:28:17;46.00;;;26.40;;
72275;SDS011;61204;49.980;8.358;2022-12-11T06:30:43;43.53;;;25.88;;
72275;SDS011;61204;49.980;8.358;2022-12-11T06:33:09;44.78;;;25.70;;
72275;SDS011;61204;49.980;8.358;2022-12-11T06:35:35;46.78;;;26.88;;
72275;SDS011;61204;49.980;8.358;2022-12-11T06:38:00;46.67;;;26.50;;
72275;SDS011;61204;49.980;8.358;2022-12-11T06:40:26;42.05;;;24.20;;
72275;SDS011;61204;49.980;8.358;2022-12-11T06:42:52;40.97;;;24.30;;
72275;SDS011;61204;49.980;8.358;2022-12-11T06:45:18;42.88;;;25.15;;
72275;SDS011;61204;49.980;8.358;2022-12-11T06:47:44;41.42;;;24.70;;
72275;SDS011;61204;49.980;8.358;2022-12-11T06:50:10;38.28;;;22.85;;
72275;SDS011;61204;49.980;8.358;2022-12-11T06:52:35;38.78;;;22.63;;
72275;SDS011;61204;49.980;8.358;2022-12-11T06:55:01;37.47;;;22.55;;
72275;SDS011;61204;49.980;8.358;2022-12-11T06:57:27;38.28;;;23.08;;
72275;SDS011;61204;49.980;8.358;2022-12-11T06:59:52;40.97;;;23.08;;
72275;SDS011;61204;49.980;8.358;2022-12-11T07:02:18;41.47;;;23.10;;
72275;SDS011;61204;49.980;8.358;2022-12-11T07:04:45;37.67;;;22.77;;
72275;SDS011;61204;49.980;8.358;2022-12-11T07:07:11;39.17;;;22.58;;
72275;SDS011;61204;49.980;8.358;2022-12-11T07:09:38;43.55;;;23.63;;
72275;SDS011;61204;49.980;8.358;2022-12-11T07:12:05;43.90;;;23.90;;
72275;SDS011;61204;49.980;8.358;2022-12-11T07:14:32;42.25;;;24.63;;
72275;SDS011;61204;49.980;8.358;2022-12-11T07:16:58;40.25;;;24.52;;
72275;SDS011;61204;49.980;8.358;2022-12-11T07:19:24;50.55;;;24.90;;
72275;SDS011;61204;49.980;8.358;2022-12-11T07:21:50;43.03;;;24.10;;
72275;SDS011;61204;49.980;8.358;2022-12-11T07:24:16;42.20;;;25.98;;
72275;SDS011;61204;49.980;8.358;2022-12-11T07:26:42;39.58;;;23.35;;
72275;SDS011;61204;49.980;8.358;2022-12-11T07:29:08;38.47;;;23.02;;
72275;SDS011;61204;49.980;8.358;2022-12-11T07:31:34;35.17;;;21.80;;
72275;SDS011;61204;49.980;8.358;2022-12-11T07:34:04;41.78;;;23.08;;
72275;SDS011;61204;49.980;8.358;2022-12-11T07:36:31;41.83;;;25.10;;
72275;SDS011;61204;49.980;8.358;2022-12-11T07:38:58;37.65;;;22.60;;
72275;SDS011;61204;49.980;8.358;2022-12-11T07:41:25;35.90;;;21.52;;
72275;SDS011;61204;49.980;8.358;2022-12-11T07:43:53;40.55;;;23.48;;
72275;SDS011;61204;49.980;8.358;2022-12-11T07:46:23;40.40;;;23.60;;
72275;SDS011;61204;49.980;8.358;2022-12-11T07:48:53;37.70;;;22.40;;
72275;SDS011;61204;49.980;8.358;2022-12-11T07:51:20;40.67;;;22.83;;
72275;SDS011;61204;49.980;8.358;2022-12-11T07:54:00;43.15;;;24.00;;
72275;SDS011;61204;49.980;8.358;2022-12-11T07:56:36;40.33;;;24.27;;
72275;SDS011;61204;49.980;8.358;2022-12-11T07:59:03;40.97;;;23.45;;
72275;SDS011;61204;49.980;8.358;2022-12-11T08:01:31;39.47;;;23.77;;
72275;SDS011;61204;49.980;8.358;2022-12-11T08:04:00;38.10;;;23.77;;
72275;SDS011;61204;49.980;8.358;2022-12-11T08:06:29;42.90;;;25.80;;
72275;SDS011;61204;49.980;8.358;2022-12-11T08:09:00;45.40;;;25.05;;
72275;SDS011;61204;49.980;8.358;2022-12-11T08:11:30;44.38;;;25.88;;
72275;SDS011;61204;49.980;8.358;2022-12-11T08:13:56;42.35;;;25.83;;
72275;SDS011;61204;49.980;8.358;2022-12-11T08:16:23;45.30;;;27.88;;
72275;SDS011;61204;49.980;8.358;2022-12-11T08:18:50;43.05;;;25.80;;
72275;SDS011;61204;49.980;8.358;2022-12-11T08:21:18;46.53;;;27.35;;
72275;SDS011;61204;49.980;8.358;2022-12-11T08:23:50;42.85;;;25.27;;
72275;SDS011;61204;49.980;8.358;2022-12-11T08:26:25;40.35;;;24.33;;
72275;SDS011;61204;49.980;8.358;2022-12-11T08:28:55;43.58;;;26.27;;
72275;SDS011;61204;49.980;8.358;2022-12-11T08:31:22;42.60;;;24.60;;
72275;SDS011;61204;49.980;8.358;2022-12-11T08:33:49;43.17;;;24.77;;
72275;SDS011;61204;49.980;8.358;2022-12-11T08:36:17;42.75;;;24.90;;
72275;SDS011;61204;49.980;8.358;2022-12-11T08:38:46;42.25;;;25.48;;
72275;SDS011;61204;49.980;8.358;2022-12-11T08:41:14;42.22;;;25.10;;
72275;SDS011;61204;49.980;8.358;2022-12-11T08:43:44;40.00;;;24.77;;
72275;SDS011;61204;49.980;8.358;2022-12-11T08:46:10;42.00;;;25.20;;
72275;SDS011;61204;49.980;8.358;2022-12-11T08:48:38;44.90;;;25.85;;
72275;SDS011;61204;49.980;8.358;2022-12-11T08:51:08;45.10;;;24.42;;
72275;SDS011;61204;49.980;8.358;2022-12-11T08:53:41;41.08;;;24.05;;
72275;SDS011;61204;49.980;8.358;2022-12-11T08:56:09;40.28;;;25.60;;
72275;SDS011;61204;49.980;8.358;2022-12-11T08:58:39;36.08;;;22.52;;
72275;SDS011;61204;49.980;8.358;2022-12-11T09:01:09;38.95;;;23.73;;
72275;SDS011;61204;49.980;8.358;2022-12-11T09:03:39;40.05;;;24.02;;
72275;SDS011;61204;49.980;8.358;2022-12-11T09:06:07;38.92;;;22.83;;
72275;SDS011;61204;49.980;8.358;2022-12-11T09:08:37;36.53;;;24.02;;
72275;SDS011;61204;49.980;8.358;2022-12-11T09:11:08;38.38;;;22.67;;
72275;SDS011;61204;49.980;8.358;2022-12-11T09:13:38;37.50;;;23.75;;
72275;SDS011;61204;49.980;8.358;2022-12-11T09:16:05;42.13;;;24.08;;
72275;SDS011;61204;49.980;8.358;2022-12-11T09:18:38;34.35;;;21.75;;
72275;SDS011;61204;49.980;8.358;2022-12-11T09:21:06;39.65;;;24.15;;
72275;SDS011;61204;49.980;8.358;2022-12-11T09:23:37;39.97;;;23.88;;
72275;SDS011;61204;49.980;8.358;2022-12-11T09:26:04;34.95;;;22.67;;
72275;SDS011;61204;49.980;8.358;2022-12-11T09:28:35;34.70;;;22.48;;
72275;SDS011;61204;49.980;8.358;2022-12-11T09:31:09;35.15;;;22.42;;
72275;SDS011;61204;49.980;8.358;2022-12-11T09:33:38;37.75;;;22.65;;
72275;SDS011;61204;49.980;8.358;2022-12-11T09:36:04;38.05;;;22.98;;
72275;SDS011;61204;49.980;8.358;2022-12-11T09:38:31;36.15;;;22.55;;
72275;SDS011;61204;49.980;8.358;2022-12-11T09:41:00;35.17;;;22.70;;
72275;SDS011;61204;49.980;8.358;2022-12-11T09:43:41;37.20;;;22.10;;
72275;SDS011;61204;49.980;8.358;2022-12-11T09:46:25;32.28;;;21.33;;
72275;SDS011;61204;49.980;8.358;2022-12-11T09:48:53;37.70;;;23.65;;
72275;SDS011;61204;49.980;8.358;2022-12-11T09:54:11;41.97;;;25.88;;
72275;SDS011;61204;49.980;8.358;2022-12-11T09:56:55;37.08;;;23.63;;
72275;SDS011;61204;49.980;8.358;2022-12-11T09:59:54;39.92;;;24.13;;
72275;SDS011;61204;49.980;8.358;2022-12-11T10:05:37;38.33;;;24.05;;
72275;SDS011;61204;49.980;8.358;2022-12-11T10:08:43;36.63;;;24.50;;
72275;SDS011;61204;49.980;8.358;2022-12-11T10:14:32;38.67;;;23.00;;
72275;SDS011;61204;49.980;8.358;2022-12-11T10:17:53;39.75;;;23.70;;
72275;SDS011;61204;49.980;8.358;2022-12-11T10:20:24;37.67;;;23.83;;
72275;SDS011;61204;49.980;8.358;2022-12-11T10:23:04;39.15;;;23.23;;
72275;SDS011;61204;49.980;8.358;2022-12-11T10:28:13;35.05;;;22.90;;
72275;SDS011;61204;49.980;8.358;2022-12-11T10:33:59;42.83;;;25.02;;
72275;SDS011;61204;49.980;8.358;2022-12-11T10:36:43;44.50;;;25.85;;
72275;SDS011;61204;49.980;8.358;2022-12-11T10:39:13;41.95;;;25.02;;
72275;SDS011;61204;49.980;8.358;2022-12-11T10:41:45;38.88;;;24.27;;
72275;SDS011;61204;49.980;8.358;2022-12-11T10:44:19;43.08;;;27.48;;
72275;SDS011;61204;49.980;8.358;2022-12-11T10:47:12;45.15;;;27.27;;
72275;SDS011;61204;49.980;8.358;2022-12-11T10:49:50;46.28;;;29.23;;
72275;SDS011;61204;49.980;8.358;2022-12-11T10:52:23;44.20;;;25.35;;
72275;SDS011;61204;49.980;8.358;2022-12-11T10:57:34;41.95;;;24.92;;
72275;SDS011;61204;49.980;8.358;2022-12-11T11:00:04;48.53;;;26.13;;
72275;SDS011;61204;49.980;8.358;2022-12-11T11:02:50;42.55;;;23.38;;
72275;SDS011;61204;49.980;8.358;2022-12-11T11:05:26;41.13;;;25.13;;
72275;SDS011;61204;49.980;8.358;2022-12-11T11:08:03;40.70;;;25.30;;
72275;SDS011;61204;49.980;8.358;2022-12-11T11:10:50;38.67;;;23.58;;
72275;SDS011;61204;49.980;8.358;2022-12-11T11:13:23;42.55;;;25.77;;
72275;SDS011;61204;49.980;8.358;2022-12-11T11:16:02;40.17;;;25.05;;
72275;SDS011;61204;49.980;8.358;2022-12-11T11:18:36;39.45;;;23.67;;
72275;SDS011;61204;49.980;8.358;2022-12-11T11:21:15;37.78;;;24.67;;
72275;SDS011;61204;49.980;8.358;2022-12-11T11:23:45;45.33;;;24.73;;
72275;SDS011;61204;49.980;8.358;2022-12-11T11:26:11;40.35;;;24.38;;
72275;SDS011;61204;49.980;8.358;2022-12-11T11:28:41;41.85;;;24.33;;
72275;SDS011;61204;49.980;8.358;2022-12-11T11:31:17;38.35;;;24.48;;
72275;SDS011;61204;49.980;8.358;2022-12-11T11:33:55;39.05;;;23.73;;
72275;SDS011;61204;49.980;8.358;2022-12-11T11:36:31;46.55;;;26.00;;
72275;SDS011;61204;49.980;8.358;2022-12-11T11:39:22;45.25;;;24.58;;
72275;SDS011;61204;49.980;8.358;2022-12-11T11:42:19;43.63;;;24.48;;
72275;SDS011;61204;49.980;8.358;2022-12-11T11:45:04;40.30;;;24.25;;
72275;SDS011;61204;49.980;8.358;2022-12-11T11:48:32;39.65;;;24.67;;
72275;SDS011;61204;49.980;8.358;2022-12-11T11:51:15;40.38;;;23.73;;
72275;SDS011;61204;49.980;8.358;2022-12-11T11:53:52;40.25;;;23.92;;
72275;SDS011;61204;49.980;8.358;2022-12-11T11:56:26;38.25;;;24.17;;
72275;SDS011;61204;49.980;8.358;2022-12-11T12:01:58;38.50;;;24.38;;
72275;SDS011;61204;49.980;8.358;2022-12-11T12:04:26;38.53;;;23.85;;
72275;SDS011;61204;49.980;8.358;2022-12-11T12:07:03;39.88;;;24.02;;
72275;SDS011;61204;49.980;8.358;2022-12-11T12:10:20;41.20;;;24.42;;
72275;SDS011;61204;49.980;8.358;2022-12-11T12:16:17;38.65;;;23.65;;
72275;SDS011;61204;49.980;8.358;2022-12-11T12:22:44;44.78;;;26.10;;
72275;SDS011;61204;49.980;8.358;2022-12-11T12:34:42;45.38;;;26.35;;
72275;SDS011;61204;49.980;8.358;2022-12-11T12:37:56;43.97;;;25.80;;
72275;SDS011;61204;49.980;8.358;2022-12-11T12:40:52;50.05;;;27.13;;
72275;SDS011;61204;49.980;8.358;2022-12-11T12:46:52;45.83;;;26.83;;
72275;SDS011;61204;49.980;8.358;2022-12-11T12:49:41;47.28;;;26.65;;
72275;SDS011;61204;49.980;8.358;2022-12-11T12:52:30;47.95;;;27.67;;
72275;SDS011;61204;49.980;8.358;2022-12-11T12:55:17;45.90;;;26.58;;
72275;SDS011;61204;49.980;8.358;2022-12-11T12:57:53;52.08;;;28.33;;
72275;SDS011;61204;49.980;8.358;2022-12-11T13:00:38;50.97;;;27.67;;
72275;SDS011;61204;49.980;8.358;2022-12-11T13:05:55;52.72;;;29.20;;
72275;SDS011;61204;49.980;8.358;2022-12-11T13:08:37;47.63;;;28.48;;
72275;SDS011;61204;49.980;8.358;2022-12-11T13:11:10;48.05;;;27.65;;
72275;SDS011;61204;49.980;8.358;2022-12-11T13:13:42;49.85;;;28.40;;
72275;SDS011;61204;49.980;8.358;2022-12-11T13:16:33;45.42;;;27.02;;
72275;SDS011;61204;49.980;8.358;2022-12-11T13:25:15;50.28;;;28.67;;
72275;SDS011;61204;49.980;8.358;2022-12-11T13:27:50;47.78;;;27.33;;
72275;SDS011;61204;49.980;8.358;2022-12-11T13:35:46;47.28;;;26.38;;
72275;SDS011;61204;49.980;8.358;2022-12-11T13:38:17;44.67;;;26.23;;
72275;SDS011;61204;49.980;8.358;2022-12-11T13:40:48;41.92;;;23.88;;
72275;SDS011;61204;49.980;8.358;2022-12-11T13:43:25;42.47;;;24.52;;
72275;SDS011;61204;49.980;8.358;2022-12-11T13:45:58;45.15;;;24.90;;
72275;SDS011;61204;49.980;8.358;2022-12-11T13:48:32;40.13;;;24.05;;
72275;SDS011;61204;49.980;8.358;2022-12-11T13:51:12;41.58;;;25.33;;
72275;SDS011;61204;49.980;8.358;2022-12-11T13:53:44;40.08;;;23.70;;
72275;SDS011;61204;49.980;8.358;2022-12-11T13:56:17;38.10;;;24.02;;
72275;SDS011;61204;49.980;8.358;2022-12-11T13:58:46;39.15;;;25.05;;
72275;SDS011;61204;49.980;8.358;2022-12-11T14:01:14;41.50;;;23.67;;
72275;SDS011;61204;49.980;8.358;2022-12-11T14:03:56;37.00;;;22.13;;
72275;SDS011;61204;49.980;8.358;2022-12-11T14:06:31;36.97;;;22.05;;
72275;SDS011;61204;49.980;8.358;2022-12-11T14:09:01;37.67;;;23.77;;
72275;SDS011;61204;49.980;8.358;2022-12-11T14:11:39;43.58;;;25.88;;
72275;SDS011;61204;49.980;8.358;2022-12-11T14:14:07;40.42;;;24.08;;
72275;SDS011;61204;49.980;8.358;2022-12-11T14:16:53;40.17;;;24.33;;
72275;SDS011;61204;49.980;8.358;2022-12-11T14:19:20;40.15;;;23.75;;
72275;SDS011;61204;49.980;8.358;2022-12-11T14:22:02;38.35;;;22.98;;
72275;SDS011;61204;49.980;8.358;2022-12-11T14:24:31;39.95;;;23.02;;
72275;SDS011;61204;49.980;8.358;2022-12-11T14:26:57;40.70;;;24.50;;
72275;SDS011;61204;49.980;8.358;2022-12-11T14:29:24;42.33;;;25.23;;
72275;SDS011;61204;49.980;8.358;2022-12-11T14:31:55;42.53;;;24.63;;
72275;SDS011;61204;49.980;8.358;2022-12-11T14:37:07;40.25;;;23.92;;
72275;SDS011;61204;49.980;8.358;2022-12-11T14:39:49;37.72;;;23.80;;
72275;SDS011;61204;49.980;8.358;2022-12-11T14:42:32;38.40;;;22.88;;
72275;SDS011;61204;49.980;8.358;2022-12-11T14:48:00;36.20;;;22.67;;
72275;SDS011;61204;49.980;8.358;2022-12-11T14:50:41;36.20;;;22.45;;
72275;SDS011;61204;49.980;8.358;2022-12-11T14:53:14;42.40;;;25.05;;
72275;SDS011;61204;49.980;8.358;2022-12-11T14:55:47;39.25;;;23.23;;
72275;SDS011;61204;49.980;8.358;2022-12-11T14:58:22;39.83;;;24.40;;
72275;SDS011;61204;49.980;8.358;2022-12-11T15:00:55;41.38;;;23.08;;
72275;SDS011;61204;49.980;8.358;2022-12-11T15:03:46;41.50;;;24.27;;
72275;SDS011;61204;49.980;8.358;2022-12-11T15:06:27;40.67;;;23.33;;
72275;SDS011;61204;49.980;8.358;2022-12-11T15:11:58;46.70;;;25.00;;
72275;SDS011;61204;49.980;8.358;2022-12-11T15:17:22;44.20;;;25.15;;
72275;SDS011;61204;49.980;8.358;2022-12-11T15:19:52;38.05;;;24.70;;
72275;SDS011;61204;49.980;8.358;2022-12-11T15:24:56;43.72;;;25.52;;
72275;SDS011;61204;49.980;8.358;2022-12-11T15:27:33;46.83;;;25.23;;
72275;SDS011;61204;49.980;8.358;2022-12-11T15:32:44;44.67;;;26.52;;
72275;SDS011;61204;49.980;8.358;2022-12-11T15:35:23;44.92;;;26.30;;
72275;SDS011;61204;49.980;8.358;2022-12-11T15:37:55;43.65;;;25.33;;
72275;SDS011;61204;49.980;8.358;2022-12-11T15:40:23;48.35;;;26.15;;
72275;SDS011;61204;49.980;8.358;2022-12-11T15:42:50;46.35;;;27.20;;
72275;SDS011;61204;49.980;8.358;2022-12-11T15:45:25;45.20;;;25.60;;
72275;SDS011;61204;49.980;8.358;2022-12-11T15:47:52;47.72;;;25.55;;
72275;SDS011;61204;49.980;8.358;2022-12-11T15:50:26;45.80;;;27.27;;
72275;SDS011;61204;49.980;8.358;2022-12-11T15:52:54;47.47;;;25.97;;
72275;SDS011;61204;49.980;8.358;2022-12-11T15:55:21;47.22;;;26.48;;
72275;SDS011;61204;49.980;8.358;2022-12-11T15:57:57;43.85;;;24.05;;
72275;SDS011;61204;49.980;8.358;2022-12-11T16:00:28;47.23;;;26.30;;
72275;SDS011;61204;49.980;8.358;2022-12-11T16:02:54;44.60;;;26.80;;
72275;SDS011;61204;49.980;8.358;2022-12-11T16:05:22;42.65;;;26.25;;
72275;SDS011;61204;49.980;8.358;2022-12-11T16:07:48;45.75;;;24.80;;
72275;SDS011;61204;49.980;8.358;2022-12-11T16:10:18;44.45;;;25.80;;
72275;SDS011;61204;49.980;8.358;2022-12-11T16:12:45;44.15;;;25.08;;
72275;SDS011;61204;49.980;8.358;2022-12-11T16:15:12;42.83;;;22.55;;
72275;SDS011;61204;49.980;8.358;2022-12-11T16:17:39;45.25;;;25.42;;
72275;SDS011;61204;49.980;8.358;2022-12-11T16:20:07;43.40;;;25.73;;
72275;SDS011;61204;49.980;8.358;2022-12-11T16:22:35;44.90;;;25.35;;
72275;SDS011;61204;49.980;8.358;2022-12-11T16:25:01;45.08;;;24.63;;
72275;SDS011;61204;49.980;8.358;2022-12-11T16:27:28;40.67;;;25.10;;
72275;SDS011;61204;49.980;8.358;2022-12-11T16:29:54;46.47;;;26.00;;